Time;durP1;ratioP1;P1;durP2;ratioP2;P2;SDS_P1;SDS_P2;PMS_P1;PMS_P2;Temp;Humidity;BMP_temperature;BMP_pressure;BME280_temperature;BME280_humidity;BME280_pressure;Samples;Min_cycle;Max_cycle;Signal;HPM_P1;HPM_P2
2023/05/09 00:01:09;;;;;;;11.15;8.45;;;;;;;12.52;100.00;100512.50;5006046;28;20033;-19
2023/05/09 00:03:34;;;;;;;14.98;9.20;;;;;;;12.45;100.00;100491.97;5005102;28;20033;-18
2023/05/09 00:06:01;;;;;;;11.30;8.85;;;;;;;12.45;100.00;100494.66;5005955;28;20096;-19
2023/05/09 00:08:26;;;;;;;11.80;8.65;;;;;;;12.52;100.00;100483.06;5005888;28;20057;-19
2023/05/09 00:10:52;;;;;;;12.40;8.57;;;;;;;12.62;100.00;100486.06;5005896;28;20492;-22
2023/05/09 00:13:18;;;;;;;11.82;8.75;;;;;;;12.74;100.00;100492.31;5006151;28;20450;-19
2023/05/09 00:15:45;;;;;;;15.70;9.88;;;;;;;12.67;100.00;100502.28;5006095;28;20030;-19
2023/05/09 00:18:11;;;;;;;13.27;9.75;;;;;;;12.72;100.00;100485.56;5005822;28;20646;-19
2023/05/09 00:20:39;;;;;;;12.73;8.77;;;;;;;12.55;100.00;100496.03;5005803;28;20566;-18
2023/05/09 00:23:05;;;;;;;11.15;8.77;;;;;;;12.60;100.00;100496.97;5005437;28;20057;-19
2023/05/09 00:25:31;;;;;;;11.98;8.85;;;;;;;12.65;100.00;100488.31;5005702;28;20038;-18
2023/05/09 00:27:57;;;;;;;11.38;9.13;;;;;;;12.62;100.00;100478.84;5005627;28;20088;-19
2023/05/09 00:30:22;;;;;;;12.45;9.40;;;;;;;12.63;100.00;100496.53;5005735;28;20714;-18
2023/05/09 00:32:48;;;;;;;12.60;9.18;;;;;;;12.87;100.00;100496.69;5005568;28;20030;-19
2023/05/09 00:35:13;;;;;;;13.10;9.30;;;;;;;12.72;100.00;100488.22;5005471;28;20026;-20
2023/05/09 00:37:39;;;;;;;12.07;8.80;;;;;;;12.69;100.00;100494.84;5005246;28;20706;-19
2023/05/09 00:40:06;;;;;;;15.48;9.55;;;;;;;12.83;100.00;100501.69;5005465;28;20140;-19
2023/05/09 00:42:32;;;;;;;12.65;9.10;;;;;;;12.81;100.00;100493.06;5005699;28;20029;-19
2023/05/09 00:44:57;;;;;;;14.57;9.43;;;;;;;12.73;100.00;100479.97;5005345;28;20030;-19
2023/05/09 00:47:23;;;;;;;14.95;9.13;;;;;;;12.77;100.00;100497.22;5005435;28;20084;-18
2023/05/09 00:49:49;;;;;;;12.57;9.18;;;;;;;12.69;100.00;100500.19;5005579;28;20532;-20
2023/05/09 00:52:16;;;;;;;12.25;8.80;;;;;;;12.88;100.00;100506.38;5005299;28;20033;-21
2023/05/09 00:54:41;;;;;;;13.88;9.07;;;;;;;12.95;100.00;100508.97;5005540;28;20061;-18
2023/05/09 00:57:07;;;;;;;15.23;9.55;;;;;;;12.80;100.00;100507.47;5005139;28;20068;-19
2023/05/09 00:59:33;;;;;;;12.48;8.93;;;;;;;12.82;100.00;100516.09;5005349;28;20022;-19
2023/05/09 01:01:58;;;;;;;15.20;8.98;;;;;;;12.82;100.00;100512.63;5005375;28;20084;-18
2023/05/09 01:04:24;;;;;;;12.00;9.10;;;;;;;12.74;100.00;100511.03;5005166;28;20034;-25
2023/05/09 01:07:02;;;;;;;12.88;9.65;;;;;;;12.87;100.00;100507.41;5005286;28;20029;-19
2023/05/09 01:09:49;;;;;;;;;;;;;;;12.73;100.00;100505.91;5005899;28;20022;-19
2023/05/09 01:12:23;;;;;;;11.30;9.10;;;;;;;12.88;100.00;100513.59;5005368;28;20741;-19
2023/05/09 01:15:01;;;;;;;11.40;8.75;;;;;;;12.74;100.00;100512.91;5006248;28;20143;-21
2023/05/09 01:17:38;;;;;;;13.88;9.43;;;;;;;12.93;100.00;100514.53;5009216;28;20030;-19
2023/05/09 01:20:27;;;;;;;10.68;9.13;;;;;;;12.83;100.00;100512.41;5009240;28;20061;-20
2023/05/09 01:23:19;;;;;;;11.77;8.55;;;;;;;12.95;100.00;100514.31;5009253;28;20022;-19
2023/05/09 01:26:02;;;;;;;15.90;10.07;;;;;;;12.74;100.00;100511.03;4999925;28;20639;-20
2023/05/09 01:29:05;;;;;;;13.40;10.07;;;;;;;12.80;100.00;100512.03;5008602;28;20044;-18
2023/05/09 01:31:33;;;;;;;13.70;9.93;;;;;;;12.63;100.00;100503.75;5009048;28;20030;-18
2023/05/09 01:34:02;;;;;;;13.50;9.32;;;;;;;12.97;100.00;100509.56;5008986;28;20029;-19
2023/05/09 01:36:31;;;;;;;13.50;9.27;;;;;;;12.74;100.00;100503.00;5008638;28;20025;-19
2023/05/09 01:38:58;;;;;;;13.32;9.98;;;;;;;12.79;100.00;100496.97;5008854;28;20033;-19
2023/05/09 01:41:27;;;;;;;13.30;9.50;;;;;;;12.89;100.00;100502.63;5009160;28;20030;-18
2023/05/09 01:43:54;;;;;;;13.00;9.52;;;;;;;12.93;100.00;100517.22;5008823;28;20029;-19
2023/05/09 01:46:21;;;;;;;12.70;9.50;;;;;;;12.62;100.00;100512.81;5008742;28;20049;-19
2023/05/09 01:48:48;;;;;;;13.40;9.65;;;;;;;12.75;100.00;100517.19;5008310;28;20033;-19
2023/05/09 01:51:15;;;;;;;14.77;10.60;;;;;;;12.89;100.00;100516.03;5008748;28;20030;-19
2023/05/09 01:53:42;;;;;;;14.40;10.02;;;;;;;12.75;100.00;100515.38;5008650;28;20125;-18
2023/05/09 01:56:08;;;;;;;15.23;9.55;;;;;;;12.68;100.00;100506.56;5008568;28;20121;-18
2023/05/09 01:58:37;;;;;;;13.95;9.80;;;;;;;12.47;100.00;100521.19;5008472;28;20038;-18
2023/05/09 02:01:04;;;;;;;14.27;9.57;;;;;;;12.64;100.00;100527.59;5008207;28;20025;-19
2023/05/09 02:03:32;;;;;;;15.45;9.70;;;;;;;12.89;100.00;100525.91;5008384;28;20033;-21
2023/05/09 02:05:58;;;;;;;15.43;9.85;;;;;;;12.85;100.00;100526.38;5008426;28;20022;-18
2023/05/09 02:08:25;;;;;;;15.45;9.88;;;;;;;12.61;100.00;100520.03;5008291;28;20084;-18
2023/05/09 02:10:51;;;;;;;13.15;9.60;;;;;;;12.58;100.00;100519.66;5008160;28;20104;-21
2023/05/09 02:13:17;;;;;;;16.60;10.25;;;;;;;12.63;100.00;100511.78;5008109;28;20032;-18
2023/05/09 02:15:43;;;;;;;12.18;9.98;;;;;;;12.68;100.00;100522.63;5008069;28;20022;-19
2023/05/09 02:18:08;;;;;;;12.02;9.35;;;;;;;12.74;100.00;100519.06;5007917;28;20038;-18
2023/05/09 02:20:37;;;;;;;12.25;9.30;;;;;;;12.46;100.00;100511.53;5008012;28;20030;-18
2023/05/09 02:23:02;;;;;;;;;;;;;;;12.46;100.00;100520.38;5008425;28;20040;-21
2023/05/09 02:25:28;;;;;;;12.98;9.68;;;;;;;12.35;100.00;100515.75;5007557;28;19913;-20
2023/05/09 02:27:57;;;;;;;15.65;10.35;;;;;;;12.54;100.00;100521.13;5007435;28;20065;-19
2023/05/09 02:30:26;;;;;;;11.75;9.25;;;;;;;12.38;100.00;100526.00;5007671;28;20033;-19
2023/05/09 02:32:58;;;;;;;13.43;9.85;;;;;;;12.32;100.00;100512.69;5007928;28;20573;-17
2023/05/09 02:35:26;;;;;;;13.20;10.20;;;;;;;12.62;100.00;100531.53;5008030;28;20052;-19
2023/05/09 02:37:52;;;;;;;13.88;9.90;;;;;;;12.63;100.00;100533.19;5007835;28;20030;-18
2023/05/09 02:40:19;;;;;;;13.02;9.05;;;;;;;12.59;100.00;100526.66;5007781;28;20061;-19
2023/05/09 02:42:44;;;;;;;14.00;10.35;;;;;;;12.67;100.00;100534.38;5007671;28;20033;-19
2023/05/09 02:45:10;;;;;;;14.13;10.23;;;;;;;12.75;100.00;100542.13;5007456;28;20538;-19
2023/05/09 02:47:36;;;;;;;17.05;9.63;;;;;;;12.57;100.00;100539.44;5007479;28;20681;-19
2023/05/09 02:50:02;;;;;;;14.95;10.65;;;;;;;12.58;100.00;100522.31;5007460;28;20033;-19
2023/05/09 02:52:28;;;;;;;13.18;9.95;;;;;;;12.74;100.00;100543.16;5007375;28;20041;-19
2023/05/09 02:54:53;;;;;;;16.63;10.65;;;;;;;12.64;100.00;100540.16;5007437;28;20034;-18
2023/05/09 02:57:19;;;;;;;15.07;10.38;;;;;;;12.40;100.00;100544.50;5007534;28;20048;-21
2023/05/09 02:59:45;;;;;;;16.48;10.85;;;;;;;12.45;100.00;100542.81;5007164;28;20065;-20
2023/05/09 03:02:11;;;;;;;13.45;10.32;;;;;;;12.36;100.00;100549.50;5007546;28;20018;-19
2023/05/09 03:04:36;;;;;;;12.60;9.80;;;;;;;12.38;100.00;100547.41;5007109;28;20507;-19
2023/05/09 03:07:02;;;;;;;15.95;9.93;;;;;;;12.50;100.00;100554.72;5007016;28;20030;-19
2023/05/09 03:09:27;;;;;;;12.45;9.43;;;;;;;12.56;100.00;100560.00;5007009;28;20512;-19
2023/05/09 03:11:55;;;;;;;10.93;9.73;;;;;;;12.62;100.00;100553.75;5007039;28;20046;-18
2023/05/09 03:14:20;;;;;;;11.80;9.57;;;;;;;12.73;100.00;100549.56;5007177;28;20026;-19
2023/05/09 03:16:45;;;;;;;13.50;8.80;;;;;;;12.72;100.00;100566.63;5006978;28;20037;-19
2023/05/09 03:19:11;;;;;;;13.82;10.43;;;;;;;12.64;100.00;100566.94;5006875;28;20053;-19
2023/05/09 03:21:36;;;;;;;12.40;9.77;;;;;;;12.55;100.00;100573.63;5006716;28;20026;-18
2023/05/09 03:24:03;;;;;;;13.13;9.75;;;;;;;12.41;100.00;100565.69;5006965;28;20025;-18
2023/05/09 03:26:29;;;;;;;15.27;10.25;;;;;;;12.56;100.00;100569.88;5006398;28;20048;-18
2023/05/09 03:28:55;;;;;;;14.13;9.02;;;;;;;12.51;100.00;100578.56;5006969;28;20089;-25
2023/05/09 03:31:20;;;;;;;15.25;9.80;;;;;;;12.44;100.00;100585.81;5006833;28;20032;-19
2023/05/09 03:33:45;;;;;;;13.13;8.52;;;;;;;12.58;100.00;100586.53;5006566;28;20439;-19
2023/05/09 03:36:11;;;;;;;12.77;8.95;;;;;;;12.54;100.00;100590.69;5006751;28;20069;-19
2023/05/09 03:38:36;;;;;;;11.68;9.60;;;;;;;12.53;100.00;100581.84;5006280;28;20048;-18
2023/05/09 03:41:02;;;;;;;13.52;9.82;;;;;;;12.67;100.00;100595.94;5006687;28;20026;-19
2023/05/09 03:43:28;;;;;;;14.63;8.73;;;;;;;12.60;100.00;100597.84;5006160;28;20495;-19
2023/05/09 03:45:53;;;;;;;13.45;9.02;;;;;;;12.57;100.00;100598.28;5006723;28;20029;-20
2023/05/09 03:48:19;;;;;;;13.32;8.80;;;;;;;12.71;100.00;100607.00;5006247;28;20022;-19
2023/05/09 03:50:44;;;;;;;15.68;8.70;;;;;;;12.74;100.00;100604.72;5006475;28;20041;-19
2023/05/09 03:53:10;;;;;;;13.02;8.77;;;;;;;12.64;100.00;100612.41;5006362;28;20037;-19
2023/05/09 03:55:35;;;;;;;14.75;8.50;;;;;;;12.73;100.00;100613.78;5006128;28;20026;-19
2023/05/09 03:58:02;;;;;;;13.60;9.50;;;;;;;12.45;100.00;100595.50;5006334;28;20037;-19
2023/05/09 04:00:27;;;;;;;13.50;9.13;;;;;;;12.65;100.00;100611.38;5006198;28;20030;-19
2023/05/09 04:02:53;;;;;;;11.38;8.32;;;;;;;12.51;100.00;100609.88;5006648;28;20121;-18
2023/05/09 04:05:19;;;;;;;12.85;9.40;;;;;;;12.60;100.00;100613.88;5005956;28;20033;-19
2023/05/09 04:07:44;;;;;;;10.20;7.88;;;;;;;12.32;100.00;100608.97;5005893;28;20124;-19
2023/05/09 04:10:11;;;;;;;12.43;8.68;;;;;;;12.37;100.00;100611.81;5005590;28;20022;-18
2023/05/09 04:12:36;;;;;;;13.73;8.25;;;;;;;12.30;100.00;100601.19;5005899;28;20061;-19
2023/05/09 04:15:02;;;;;;;12.20;8.70;;;;;;;12.56;100.00;100615.38;5005946;28;20030;-18
2023/05/09 04:17:28;;;;;;;11.85;8.23;;;;;;;12.41;100.00;100618.38;5005787;28;20030;-19
2023/05/09 04:19:53;;;;;;;14.20;9.02;;;;;;;12.74;100.00;100620.75;5005645;28;20079;-19
2023/05/09 04:22:18;;;;;;;12.15;8.40;;;;;;;12.39;100.00;100612.41;5005719;28;20018;-18
2023/05/09 04:24:44;;;;;;;14.57;8.25;;;;;;;12.42;100.00;100612.81;5005897;28;20254;-19
2023/05/09 04:27:09;;;;;;;15.38;8.00;;;;;;;12.55;100.00;100624.44;5005414;28;20022;-18
2023/05/09 04:29:35;;;;;;;12.90;8.07;;;;;;;12.51;100.00;100620.56;5005866;28;20185;-19
2023/05/09 04:32:01;;;;;;;12.25;8.10;;;;;;;12.64;100.00;100607.06;5005538;28;20088;-19
2023/05/09 04:34:28;;;;;;;13.88;8.82;;;;;;;12.60;100.00;100603.19;5005906;28;20026;-21
2023/05/09 04:36:54;;;;;;;12.10;8.65;;;;;;;12.63;100.00;100611.59;5005818;28;20045;-18
2023/05/09 04:39:20;;;;;;;13.63;9.30;;;;;;;12.62;100.00;100625.19;5005670;28;20036;-19
2023/05/09 04:41:46;;;;;;;13.60;9.73;;;;;;;12.65;100.00;100619.41;5005512;28;20104;-19
2023/05/09 04:44:16;;;;;;;15.10;9.82;;;;;;;12.61;100.00;100624.38;5005479;28;20033;-19
2023/05/09 04:46:42;;;;;;;13.23;9.35;;;;;;;12.42;100.00;100623.50;5005524;28;20018;-20
2023/05/09 04:49:08;;;;;;;13.27;8.50;;;;;;;12.30;100.00;100619.91;5004775;28;20564;-18
2023/05/09 04:51:33;;;;;;;12.80;9.27;;;;;;;12.30;100.00;100624.41;5005500;28;20128;-20
2023/05/09 04:53:58;;;;;;;13.15;8.27;;;;;;;12.27;100.00;100628.34;5005148;28;20026;-20
2023/05/09 04:56:24;;;;;;;11.00;7.95;;;;;;;12.25;100.00;100630.41;5005587;28;20030;-19
2023/05/09 04:58:50;;;;;;;12.27;9.10;;;;;;;12.09;100.00;100623.72;5005248;28;20732;-19
2023/05/09 05:01:15;;;;;;;12.63;8.95;;;;;;;12.20;100.00;100611.53;5005237;28;20045;-19
2023/05/09 05:03:41;;;;;;;14.80;10.18;;;;;;;12.22;100.00;100630.84;5005342;28;20026;-19
2023/05/09 05:06:07;;;;;;;12.70;9.10;;;;;;;12.08;100.00;100618.59;5004982;28;20113;-22
2023/05/09 05:08:32;;;;;;;15.27;10.25;;;;;;;11.84;100.00;100628.97;5005288;28;20030;-21
2023/05/09 05:10:58;;;;;;;16.58;9.27;;;;;;;11.90;100.00;100619.31;5005201;28;20050;-18
2023/05/09 05:13:23;;;;;;;15.38;9.32;;;;;;;11.98;100.00;100617.19;5005382;28;20052;-18
2023/05/09 05:15:49;;;;;;;14.57;9.98;;;;;;;12.20;100.00;100625.72;5005167;28;20022;-21
2023/05/09 05:18:14;;;;;;;18.10;11.27;;;;;;;12.25;100.00;100633.88;5005392;28;20034;-18
2023/05/09 05:20:41;;;;;;;14.75;9.55;;;;;;;12.00;100.00;100630.34;5004915;28;20033;-19
2023/05/09 05:23:07;;;;;;;16.00;10.25;;;;;;;12.28;100.00;100638.00;5004981;28;20415;-19
2023/05/09 05:25:32;;;;;;;19.35;12.07;;;;;;;12.28;100.00;100640.69;5004919;28;20050;-19
2023/05/09 05:27:58;;;;;;;17.05;11.50;;;;;;;12.35;100.00;100636.09;5005093;28;20034;-19
2023/05/09 05:30:23;;;;;;;16.63;11.77;;;;;;;12.31;100.00;100640.25;5004912;28;20026;-18
2023/05/09 05:32:49;;;;;;;20.27;13.38;;;;;;;12.26;100.00;100640.91;5005000;28;20026;-20
2023/05/09 05:35:14;;;;;;;22.67;12.90;;;;;;;12.27;100.00;100637.16;5004965;28;20030;-18
2023/05/09 05:37:40;;;;;;;22.77;14.27;;;;;;;12.34;100.00;100638.97;5004724;28;20136;-18
2023/05/09 05:40:07;;;;;;;18.55;13.13;;;;;;;12.24;100.00;100637.63;5004993;28;20092;-20
2023/05/09 05:42:33;;;;;;;24.05;13.43;;;;;;;12.53;100.00;100637.22;5004665;28;20026;-19
2023/05/09 05:45:04;;;;;;;20.40;13.65;;;;;;;12.27;100.00;100631.81;5004792;28;20044;-23
2023/05/09 05:47:34;;;;;;;26.17;14.23;;;;;;;12.08;100.00;100642.66;5004877;28;20092;-22
2023/05/09 05:50:00;;;;;;;22.35;13.63;;;;;;;12.29;100.00;100647.66;5005108;28;20109;-19
2023/05/09 05:52:26;;;;;;;23.52;14.73;;;;;;;12.29;100.00;100642.31;5004653;28;20152;-19
2023/05/09 05:54:52;;;;;;;20.80;13.80;;;;;;;12.10;100.00;100640.59;5004829;28;20073;-19
2023/05/09 05:57:18;;;;;;;21.13;13.93;;;;;;;12.28;100.00;100654.06;5004672;28;20026;-19
2023/05/09 05:59:46;;;;;;;22.67;15.02;;;;;;;12.55;100.00;100648.53;5004594;28;20037;-18
2023/05/09 06:02:11;;;;;;;;;;;;;;;12.59;100.00;100655.88;5008491;28;20037;-19
2023/05/09 06:04:37;;;;;;;21.50;14.10;;;;;;;12.54;100.00;100636.16;5008118;28;19910;-18
2023/05/09 06:07:02;;;;;;;24.23;14.40;;;;;;;12.66;100.00;100651.28;5008311;28;20053;-22
2023/05/09 06:09:28;;;;;;;21.70;13.63;;;;;;;12.84;100.00;100647.84;5008153;28;20026;-19
2023/05/09 06:11:53;;;;;;;23.75;14.13;;;;;;;12.76;100.00;100640.09;5023085;28;20038;-23
2023/05/09 06:14:19;;;;;;;19.95;13.52;;;;;;;12.74;100.00;100644.03;5027773;28;20480;-19
2023/05/09 06:16:44;;;;;;;21.00;12.77;;;;;;;12.73;100.00;100648.59;5027676;28;20025;-19
2023/05/09 06:19:10;;;;;;;22.92;14.27;;;;;;;12.83;100.00;100635.53;5027920;28;20029;-19
2023/05/09 06:21:35;;;;;;;16.73;12.00;;;;;;;12.59;100.00;100645.19;5027756;28;20126;-19
2023/05/09 06:24:02;;;;;;;18.55;12.07;;;;;;;12.96;100.00;100652.50;5027722;28;20025;-28
2023/05/09 06:26:28;;;;;;;19.13;12.55;;;;;;;12.86;100.00;100643.09;5027582;28;20510;-19
2023/05/09 06:28:53;;;;;;;20.90;13.20;;;;;;;12.71;100.00;100652.50;5027450;28;20034;-21
2023/05/09 06:31:19;;;;;;;19.85;11.93;;;;;;;12.82;100.00;100644.56;5027411;28;20110;-18
2023/05/09 06:33:44;;;;;;;17.05;11.57;;;;;;;13.03;100.00;100643.34;5027640;28;20064;-18
2023/05/09 06:36:10;;;;;;;19.60;13.07;;;;;;;13.17;100.00;100641.34;5027600;28;20025;-19
2023/05/09 06:38:36;;;;;;;20.17;12.82;;;;;;;12.90;100.00;100651.50;5027432;28;20047;-19
2023/05/09 06:41:01;;;;;;;20.67;11.75;;;;;;;12.59;100.00;100647.84;5025951;28;20037;-19
2023/05/09 06:43:27;;;;;;;23.17;13.00;;;;;;;12.63;100.00;100645.56;5027613;28;20496;-19
2023/05/09 06:45:52;;;;;;;19.15;12.93;;;;;;;12.53;100.00;100639.91;5027026;28;20479;-19
2023/05/09 06:48:18;;;;;;;19.45;13.05;;;;;;;12.57;100.00;100652.59;5027282;28;20029;-18
2023/05/09 06:50:43;;;;;;;21.88;14.23;;;;;;;12.74;100.00;100649.38;5025676;28;20037;-19
2023/05/09 06:53:09;;;;;;;21.35;14.25;;;;;;;12.82;100.00;100646.44;5025962;28;20112;-19
2023/05/09 06:55:34;;;;;;;21.77;14.50;;;;;;;12.66;100.00;100658.50;5026456;28;20035;-19
2023/05/09 06:58:00;;;;;;;27.45;16.08;;;;;;;12.68;100.00;100651.06;5027195;28;20159;-19
2023/05/09 07:00:25;;;;;;;23.23;15.70;;;;;;;12.71;100.00;100652.50;5027160;28;20120;-18
2023/05/09 07:02:51;;;;;;;22.15;14.88;;;;;;;12.57;100.00;100651.81;5026992;28;20042;-19
2023/05/09 07:05:16;;;;;;;23.33;15.18;;;;;;;12.80;100.00;100649.31;5026712;28;20037;-19
2023/05/09 07:07:42;;;;;;;20.67;15.30;;;;;;;12.70;100.00;100640.97;5026550;28;20039;-19
2023/05/09 07:10:08;;;;;;;18.65;13.85;;;;;;;12.94;100.00;100643.88;5026323;28;20479;-18
2023/05/09 07:12:34;;;;;;;22.65;15.52;;;;;;;13.20;100.00;100654.31;5026132;28;20064;-19
2023/05/09 07:14:59;;;;;;;21.30;15.27;;;;;;;13.23;100.00;100651.19;5026389;28;20117;-19
2023/05/09 07:17:25;;;;;;;17.08;12.60;;;;;;;13.24;100.00;100646.66;5026305;28;20091;-19
2023/05/09 07:19:50;;;;;;;16.83;12.88;;;;;;;13.09;100.00;100660.38;5026197;28;20029;-18
2023/05/09 07:22:16;;;;;;;16.40;12.65;;;;;;;13.21;100.00;100665.84;5026466;28;20025;-19
2023/05/09 07:24:43;;;;;;;15.82;12.48;;;;;;;13.05;100.00;100668.03;5026741;28;20036;-18
2023/05/09 07:27:08;;;;;;;18.38;11.60;;;;;;;12.88;100.00;100671.50;5026477;28;20032;-19
2023/05/09 07:29:34;;;;;;;16.90;12.20;;;;;;;12.75;100.00;100665.25;5026709;28;20029;-23
2023/05/09 07:31:59;;;;;;;16.55;10.93;;;;;;;12.72;100.00;100660.31;5026417;28;20029;-19
2023/05/09 07:34:25;;;;;;;16.15;11.48;;;;;;;13.13;100.00;100674.97;5026220;28;20021;-19
2023/05/09 07:36:50;;;;;;;20.10;11.70;;;;;;;12.65;100.00;100671.06;5026541;28;20032;-20
2023/05/09 07:39:16;;;;;;;19.88;11.32;;;;;;;12.61;100.00;100671.72;5026365;28;20657;-18
2023/05/09 07:41:41;;;;;;;14.40;10.32;;;;;;;12.46;100.00;100666.66;5026371;28;20081;-19
2023/05/09 07:44:08;;;;;;;14.85;11.65;;;;;;;12.58;100.00;100674.81;5026404;28;20021;-19
2023/05/09 07:46:36;;;;;;;17.98;11.60;;;;;;;12.60;100.00;100668.22;5026433;28;20719;-19
2023/05/09 07:49:02;;;;;;;15.80;11.50;;;;;;;12.64;100.00;100673.97;5026426;28;20025;-19
2023/05/09 07:51:27;;;;;;;16.17;12.25;;;;;;;12.85;100.00;100673.59;5025900;28;20040;-18
2023/05/09 07:53:55;;;;;;;20.25;15.10;;;;;;;12.61;100.00;100677.91;5026302;28;20041;-18
2023/05/09 07:56:21;;;;;;;22.25;14.65;;;;;;;12.69;100.00;100682.16;5026009;28;20425;-18
2023/05/09 07:58:47;;;;;;;16.13;12.18;;;;;;;12.58;100.00;100674.81;5026079;28;20043;-18
2023/05/09 08:01:12;;;;;;;15.52;10.68;;;;;;;12.56;100.00;100676.91;5025993;28;20483;-17
2023/05/09 08:03:38;;;;;;;18.35;12.20;;;;;;;12.62;100.00;100655.44;5025740;28;20530;-19
2023/05/09 08:06:03;;;;;;;18.20;12.13;;;;;;;12.86;100.00;100677.91;5041067;28;20030;-18
2023/05/09 08:08:29;;;;;;;15.70;12.20;;;;;;;12.88;100.00;100668.84;5025592;28;20026;-20
2023/05/09 08:10:55;;;;;;;18.92;11.88;;;;;;;12.75;100.00;100678.63;5025544;28;20052;-18
2023/05/09 08:13:21;;;;;;;13.90;10.95;;;;;;;12.90;100.00;100693.53;5025514;28;20035;-18
2023/05/09 08:15:47;;;;;;;14.65;10.25;;;;;;;12.45;100.00;100700.63;5025739;28;20110;-19
2023/05/09 08:18:13;;;;;;;16.38;10.85;;;;;;;12.54;100.00;100700.38;5025706;28;20132;-19
2023/05/09 08:20:38;;;;;;;15.70;10.98;;;;;;;12.69;100.00;100703.56;5025453;28;20028;-19
2023/05/09 08:23:04;;;;;;;18.30;10.65;;;;;;;12.76;100.00;100685.59;5025465;28;20025;-19
2023/05/09 08:25:30;;;;;;;16.52;11.43;;;;;;;12.91;100.00;100695.16;5024631;28;20026;-19
2023/05/09 08:27:55;;;;;;;17.48;11.43;;;;;;;12.83;100.00;100693.56;5025202;28;20103;-20
2023/05/09 08:30:20;;;;;;;19.15;11.73;;;;;;;12.83;100.00;100694.41;5025291;28;20108;-21
2023/05/09 08:32:46;;;;;;;19.00;12.73;;;;;;;12.69;100.00;100682.16;5025184;28;20029;-20
2023/05/09 08:35:11;;;;;;;17.23;12.88;;;;;;;12.84;100.00;100700.56;5024882;28;20061;-19
2023/05/09 08:37:37;;;;;;;15.85;12.07;;;;;;;12.85;100.00;100697.69;5025335;28;20111;-20
2023/05/09 08:40:09;;;;;;;16.25;11.57;;;;;;;12.61;100.00;100703.84;5025337;28;20026;-18
2023/05/09 08:42:36;;;;;;;16.25;12.25;;;;;;;12.48;100.00;100680.66;5025131;28;20163;-19
2023/05/09 08:45:08;;;;;;;19.50;12.55;;;;;;;12.52;100.00;100691.75;5025113;28;20811;-18
2023/05/09 08:47:36;;;;;;;16.98;12.70;;;;;;;12.81;100.00;100704.50;5025172;28;20120;-19
2023/05/09 08:50:03;;;;;;;18.52;11.65;;;;;;;12.84;100.00;100698.72;5025135;28;20037;-18
2023/05/09 08:52:32;;;;;;;16.13;12.07;;;;;;;12.72;100.00;100676.38;5025036;28;20128;-18
2023/05/09 08:54:59;;;;;;;36.20;25.75;;;;;;;12.82;100.00;100681.22;5024858;28;20501;-19
2023/05/09 08:57:26;;;;;;;24.90;15.55;;;;;;;12.64;100.00;100698.03;5024702;28;20026;-19
2023/05/09 08:59:52;;;;;;;80.20;48.17;;;;;;;12.60;100.00;100688.81;5024877;28;20033;-19
2023/05/09 09:02:18;;;;;;;149.00;92.80;;;;;;;12.62;100.00;100681.38;5024852;28;20114;-17
2023/05/09 09:04:44;;;;;;;19.23;13.52;;;;;;;12.60;100.00;100691.47;5024964;28;20032;-19
2023/05/09 09:07:11;;;;;;;28.92;21.13;;;;;;;12.87;100.00;100684.06;5024781;28;20025;-19
2023/05/09 09:09:44;;;;;;;24.55;20.65;;;;;;;12.89;100.00;100673.13;5024979;28;20427;-19
2023/05/09 09:12:11;;;;;;;19.75;15.20;;;;;;;12.54;100.00;100684.31;5025017;28;20092;-19
2023/05/09 09:14:44;;;;;;;19.30;13.23;;;;;;;12.58;100.00;100670.28;5024891;28;20025;-19
2023/05/09 09:17:14;;;;;;;18.75;14.77;;;;;;;12.79;100.00;100690.53;5024996;28;20575;-18
2023/05/09 09:19:41;;;;;;;16.10;13.23;;;;;;;12.49;100.00;100670.78;5024871;28;20492;-18
2023/05/09 09:22:12;;;;;;;13.70;10.48;;;;;;;12.31;100.00;100685.69;5024974;28;20029;-18
2023/05/09 09:24:38;;;;;;;26.98;24.20;;;;;;;12.42;100.00;100668.97;5024874;28;20029;-19
2023/05/09 09:27:05;;;;;;;17.45;11.52;;;;;;;12.65;100.00;100680.97;5024671;28;20063;-19
2023/05/09 09:29:32;;;;;;;21.70;17.00;;;;;;;12.94;100.00;100679.47;5024830;28;20041;-19
2023/05/09 09:32:01;;;;;;;22.42;14.77;;;;;;;12.94;100.00;100686.69;5024542;28;20029;-19
2023/05/09 09:34:26;;;;;;;19.63;13.50;;;;;;;13.40;100.00;100688.13;5024816;28;20037;-18
2023/05/09 09:36:52;;;;;;;20.45;13.10;;;;;;;13.56;100.00;100682.19;5027789;28;20113;-19
2023/05/09 09:39:17;;;;;;;24.05;18.00;;;;;;;13.73;100.00;100682.44;5028496;28;20478;-20
2023/05/09 09:41:46;;;;;;;17.27;11.80;;;;;;;13.48;100.00;100681.66;5028198;28;20048;-19
2023/05/09 09:44:15;;;;;;;16.98;11.45;;;;;;;13.48;100.00;100690.53;5028477;28;20041;-18
2023/05/09 09:46:41;;;;;;;14.95;10.90;;;;;;;13.37;100.00;100689.41;5028194;28;20295;-19
2023/05/09 09:49:15;;;;;;;15.25;10.45;;;;;;;13.50;100.00;100675.03;5028596;28;20037;-19
2023/05/09 09:51:41;;;;;;;13.50;10.68;;;;;;;13.49;100.00;100683.31;5028402;28;20135;-19
2023/05/09 09:54:07;;;;;;;12.48;9.60;;;;;;;13.20;100.00;100669.56;5028384;28;20092;-19
2023/05/09 09:56:52;;;;;;;17.23;10.20;;;;;;;13.53;100.00;100682.66;5028315;28;20493;-19
2023/05/09 09:59:19;;;;;;;14.65;10.50;;;;;;;13.99;100.00;100681.25;5028183;28;20031;-19
2023/05/09 10:02:02;;;;;;;14.27;10.20;;;;;;;14.10;100.00;100682.38;5028356;28;20032;-19
2023/05/09 10:04:30;;;;;;;14.43;8.60;;;;;;;13.75;100.00;100668.78;5028166;28;20029;-19
2023/05/09 10:06:57;;;;;;;17.08;12.27;;;;;;;13.91;100.00;100678.06;5027712;28;20028;-18
2023/05/09 10:09:25;;;;;;;14.63;12.50;;;;;;;14.17;100.00;100671.53;5028162;28;20068;-19
2023/05/09 10:11:52;;;;;;;13.35;9.82;;;;;;;14.35;100.00;100679.53;5027825;28;20045;-18
2023/05/09 10:14:20;;;;;;;12.95;8.60;;;;;;;14.49;100.00;100682.03;5027849;28;20475;-19
2023/05/09 10:16:48;;;;;;;14.68;10.18;;;;;;;14.50;100.00;100680.97;5028106;28;20061;-18
2023/05/09 10:19:17;;;;;;;14.98;10.07;;;;;;;14.59;100.00;100660.84;5027756;28;20033;-18
2023/05/09 10:21:46;;;;;;;13.85;8.65;;;;;;;14.60;100.00;100671.34;5027634;28;20424;-20
2023/05/09 10:24:12;;;;;;;17.05;9.68;;;;;;;14.46;100.00;100678.75;5027755;28;20099;-19
2023/05/09 10:26:44;;;;;;;17.45;10.73;;;;;;;14.74;100.00;100671.13;5027623;28;20017;-19
2023/05/09 10:29:14;;;;;;;16.65;12.13;;;;;;;14.76;100.00;100667.16;5017795;28;20030;-20
2023/05/09 10:31:42;;;;;;;15.63;11.02;;;;;;;14.45;100.00;100669.06;5008122;28;20052;-24
2023/05/09 10:34:09;;;;;;;;;;;;;;;14.31;100.00;100685.59;5008241;28;20592;-19
2023/05/09 10:36:35;;;;;;;17.25;9.98;;;;;;;14.34;100.00;100677.88;5008090;28;19917;-19
2023/05/09 10:39:01;;;;;;;13.55;9.35;;;;;;;14.38;100.00;100681.75;5007744;28;21207;-18
2023/05/09 10:41:27;;;;;;;13.65;8.95;;;;;;;14.46;100.00;100676.09;5007720;28;20525;-19
2023/05/09 10:43:56;;;;;;;15.77;10.40;;;;;;;14.28;100.00;100684.16;5007565;28;20044;-19
2023/05/09 10:46:23;;;;;;;13.77;10.35;;;;;;;14.42;100.00;100685.59;5007423;28;20032;-16
2023/05/09 10:48:49;;;;;;;14.30;10.82;;;;;;;14.41;100.00;100685.88;5006614;28;20036;-16
2023/05/09 10:51:15;;;;;;;14.50;11.32;;;;;;;14.42;100.00;100680.25;5007745;28;20026;-17
2023/05/09 10:53:49;;;;;;;15.43;10.93;;;;;;;14.47;100.00;100685.75;5007536;28;20033;-17
2023/05/09 10:56:32;;;;;;;15.32;10.32;;;;;;;14.53;100.00;100677.84;5007595;28;20037;-17
2023/05/09 10:58:58;;;;;;;17.08;12.52;;;;;;;14.70;100.00;100681.50;5007402;28;20025;-16
2023/05/09 11:01:38;;;;;;;14.60;10.90;;;;;;;14.39;100.00;100672.66;5007138;28;20030;-16
2023/05/09 11:04:11;;;;;;;15.15;10.57;;;;;;;14.65;100.00;100681.41;5007315;28;20026;-16
2023/05/09 11:06:44;;;;;;;16.67;11.40;;;;;;;14.90;100.00;100680.38;5007412;28;20033;-16